Time;durP1;ratioP1;P1;durP2;ratioP2;P2;SDS_P1;SDS_P2;PMS_P1;PMS_P2;Temp;Humidity;BMP_temperature;BMP_pressure;BME280_temperature;BME280_humidity;BME280_pressure;Samples;Min_cycle;Max_cycle;Signal;HPM_P1;HPM_P2
2023/04/15 00:03:05;;;;;;;11.18;4.65;;;;;;;9.49;80.91;100778.41;10394427;28;20493;-74
2023/04/15 00:08:06;;;;;;;22.08;12.80;;;;;;;9.53;79.49;100782.38;10380382;28;20466;-72
2023/04/15 00:13:07;;;;;;;30.83;16.52;;;;;;;9.48;80.14;100784.03;10378763;28;20442;-74
2023/04/15 00:18:07;;;;;;;7.03;5.78;;;;;;;9.46;79.56;100781.50;10377012;28;20124;-72
2023/04/15 00:23:08;;;;;;;11.55;5.72;;;;;;;9.38;80.16;100778.94;10378384;28;20034;-74
2023/04/15 00:28:08;;;;;;;30.00;10.05;;;;;;;9.31;79.42;100783.41;10376949;28;20482;-74
2023/04/15 00:33:09;;;;;;;9.05;6.25;;;;;;;9.20;80.18;100792.03;10344181;28;20165;-75
2023/04/15 00:38:10;;;;;;;18.92;7.13;;;;;;;9.14;80.88;100798.22;10375810;28;20029;-73
2023/04/15 00:43:10;;;;;;;6.90;6.00;;;;;;;9.05;81.31;100798.31;10377547;28;20034;-75
2023/04/15 00:48:11;;;;;;;28.23;15.23;;;;;;;8.97;81.60;100798.44;10377400;28;20034;-74
2023/04/15 00:53:11;;;;;;;20.83;11.45;;;;;;;8.95;81.54;100795.06;10360155;28;20420;-74
2023/04/15 00:58:11;;;;;;;9.75;8.13;;;;;;;8.90;81.07;100794.78;10377119;28;20037;-72
2023/04/15 01:03:12;;;;;;;15.10;9.95;;;;;;;8.85;80.87;100786.44;10376872;28;20040;-71
2023/04/15 01:08:13;;;;;;;18.88;10.93;;;;;;;8.74;80.37;100795.88;10380185;28;20382;-74
2023/04/15 01:13:14;;;;;;;13.13;7.95;;;;;;;8.66;80.75;100798.66;10380653;28;20053;-74
2023/04/15 01:18:14;;;;;;;9.00;4.97;;;;;;;8.58;82.34;100802.31;10391791;28;20105;-74
2023/04/15 01:23:16;;;;;;;11.88;5.57;;;;;;;8.55;81.65;100808.09;10377167;28;20107;-73
2023/04/15 01:28:16;;;;;;;6.20;4.80;;;;;;;8.48;80.68;100793.63;10374777;28;20104;-73
2023/04/15 01:33:17;;;;;;;8.65;7.03;;;;;;;8.44;80.98;100796.91;10394380;28;20476;-72
2023/04/15 01:38:17;;;;;;;15.43;6.93;;;;;;;8.32;81.03;100786.53;10397189;28;20110;-74
2023/04/15 01:43:17;;;;;;;8.02;6.18;;;;;;;8.27;81.11;100797.06;10398328;28;20461;-73
2023/04/15 01:48:18;;;;;;;16.23;6.25;;;;;;;8.18;81.66;100800.84;10375114;28;20062;-74
2023/04/15 01:53:18;;;;;;;11.23;5.88;;;;;;;8.10;81.59;100804.47;10373172;28;20065;-74
2023/04/15 01:58:19;;;;;;;10.25;5.30;;;;;;;8.03;82.45;100806.22;10374305;28;20473;-73
2023/04/15 02:03:19;;;;;;;8.35;5.80;;;;;;;7.99;82.75;100810.31;10373422;28;20080;-74
2023/04/15 02:08:20;;;;;;;6.18;5.57;;;;;;;7.93;82.39;100808.34;10391336;28;20033;-74
2023/04/15 02:13:20;;;;;;;8.68;6.18;;;;;;;7.86;83.92;100816.31;10372849;28;20481;-74
2023/04/15 02:18:21;;;;;;;11.95;6.75;;;;;;;7.84;85.94;100812.13;10374047;28;20038;-75
2023/04/15 02:23:21;;;;;;;8.95;5.68;;;;;;;7.82;86.48;100816.88;10372231;28;20126;-74
2023/04/15 02:28:21;;;;;;;13.35;6.68;;;;;;;7.81;88.44;100821.41;10372842;28;20045;-74
2023/04/15 02:33:22;;;;;;;9.70;6.82;;;;;;;7.79;88.73;100828.03;10373734;28;20030;-72
2023/04/15 02:38:22;;;;;;;10.45;7.70;;;;;;;7.83;88.37;100830.16;10373596;28;20037;-74
2023/04/15 02:43:23;;;;;;;10.02;6.05;;;;;;;7.83;88.24;100832.03;10373331;28;20497;-73
2023/04/15 02:48:23;;;;;;;8.02;7.22;;;;;;;7.82;90.06;100831.19;10372945;28;20034;-74
2023/04/15 02:53:24;;;;;;;10.88;6.30;;;;;;;7.85;90.79;100840.78;10371811;28;20097;-72
2023/04/15 02:58:25;;;;;;;7.32;5.15;;;;;;;7.80;90.36;100835.91;10371843;28;20034;-73
2023/04/15 03:03:27;;;;;;;12.90;6.75;;;;;;;7.78;92.37;100850.59;10388246;28;20034;-74
2023/04/15 03:08:28;;;;;;;14.07;6.43;;;;;;;7.82;90.29;100858.16;10372838;28;20034;-74
2023/04/15 03:13:28;;;;;;;7.07;5.75;;;;;;;7.76;89.32;100866.97;10388150;28;20033;-72
2023/04/15 03:18:28;;;;;;;13.02;6.07;;;;;;;7.71;89.32;100871.19;10373179;28;20038;-73
2023/04/15 03:23:30;;;;;;;15.55;6.80;;;;;;;7.64;88.35;100884.56;10372384;28;20386;-72
2023/04/15 03:28:31;;;;;;;7.43;6.70;;;;;;;7.58;88.57;100891.50;10379492;28;20141;-73
2023/04/15 03:33:31;;;;;;;9.50;6.57;;;;;;;7.51;90.25;100884.31;10378954;28;20508;-72
2023/04/15 03:38:32;;;;;;;9.88;6.82;;;;;;;7.46;92.41;100892.91;10378963;28;20088;-73
2023/04/15 03:43:32;;;;;;;6.68;5.97;;;;;;;7.37;92.09;100902.91;10379758;28;20037;-72
2023/04/15 03:48:33;;;;;;;8.52;6.57;;;;;;;7.24;92.04;100905.31;10396190;28;20057;-73
2023/04/15 03:53:33;;;;;;;17.10;6.80;;;;;;;7.21;92.81;100911.91;10380265;28;20086;-74
2023/04/15 03:58:33;;;;;;;7.07;6.47;;;;;;;7.14;91.28;100918.16;10381132;28;20447;-72
2023/04/15 04:03:34;;;;;;;9.07;6.88;;;;;;;7.04;92.13;100914.84;10399306;28;20045;-73
2023/04/15 04:08:34;;;;;;;8.40;6.60;;;;;;;6.95;92.63;100924.78;10396091;28;20041;-74
2023/04/15 04:13:35;;;;;;;9.18;6.95;;;;;;;6.90;94.60;100929.88;10394082;28;20030;-73
2023/04/15 04:18:35;;;;;;;17.20;6.75;;;;;;;6.81;93.68;100939.81;10379738;28;20439;-75
2023/04/15 04:23:35;;;;;;;11.27;7.13;;;;;;;6.69;96.80;100947.38;10379466;28;20034;-73
2023/04/15 04:28:38;;;;;;;9.23;7.32;;;;;;;6.64;94.53;100955.16;10392816;28;20522;-74
2023/04/15 04:33:39;;;;;;;9.40;8.10;;;;;;;6.56;96.52;100955.16;10360631;28;20355;-74
2023/04/15 04:38:39;;;;;;;8.10;7.32;;;;;;;6.53;95.00;100967.09;10375423;28;20034;-73
2023/04/15 04:43:40;;;;;;;9.13;7.63;;;;;;;6.53;99.78;100977.00;10378728;28;20057;-74
2023/04/15 04:48:40;;;;;;;9.15;7.50;;;;;;;6.56;99.01;100978.53;10377800;28;20120;-73
2023/04/15 04:53:42;;;;;;;10.43;7.07;;;;;;;6.60;97.96;100988.78;10377471;28;20034;-73
2023/04/15 04:58:42;;;;;;;8.35;7.55;;;;;;;6.59;100.00;101003.25;10377038;28;20139;-73
2023/04/15 05:03:43;;;;;;;11.55;8.40;;;;;;;6.70;100.00;101010.13;10359244;28;20049;-72
2023/04/15 05:08:45;;;;;;;8.30;7.55;;;;;;;6.75;100.00;101013.16;10391940;28;20037;-73
2023/04/15 05:13:45;;;;;;;10.65;7.60;;;;;;;6.73;100.00;101024.09;10374650;28;20114;-74
2023/04/15 05:18:46;;;;;;;12.38;8.40;;;;;;;6.77;100.00;101038.06;10376256;28;20030;-72
2023/04/15 05:23:46;;;;;;;18.00;8.93;;;;;;;6.74;100.00;101044.63;10391323;28;20037;-73
2023/04/15 05:28:46;;;;;;;9.30;7.35;;;;;;;6.80;100.00;101061.13;10374973;28;20497;-72
2023/04/15 05:33:47;;;;;;;16.23;10.05;;;;;;;6.82;100.00;101075.22;10375273;28;20037;-72
2023/04/15 05:38:47;;;;;;;11.75;8.48;;;;;;;6.82;100.00;101077.91;10374818;28;20073;-73
2023/04/15 05:43:48;;;;;;;11.18;8.63;;;;;;;6.86;100.00;101084.63;10375798;28;20076;-73
2023/04/15 05:48:48;;;;;;;12.93;9.30;;;;;;;7.03;100.00;101097.09;10375588;28;20045;-75
2023/04/15 05:53:48;;;;;;;8.40;7.45;;;;;;;7.88;100.00;101123.50;10375141;28;20041;-74
2023/04/15 05:58:49;;;;;;;11.05;6.43;;;;;;;9.03;100.00;101124.53;10374782;28;20030;-73
2023/04/15 06:03:50;;;;;;;8.73;7.40;;;;;;;9.75;100.00;101128.53;10375309;28;20064;-73
2023/04/15 06:08:51;;;;;;;15.65;6.63;;;;;;;10.22;100.00;101132.69;10374537;28;20100;-72
2023/04/15 06:13:51;;;;;;;7.15;6.45;;;;;;;10.63;98.85;101149.25;10375026;28;20113;-74
2023/04/15 06:18:51;;;;;;;7.40;6.72;;;;;;;11.02;95.97;101160.69;10375407;28;20030;-72
2023/04/15 06:23:52;;;;;;;7.85;6.93;;;;;;;11.33;93.00;101169.28;10393579;28;20108;-74
2023/04/15 06:28:52;;;;;;;15.23;6.40;;;;;;;11.48;88.52;101181.91;10376079;28;20061;-73
2023/04/15 06:33:53;;;;;;;7.60;6.75;;;;;;;11.78;87.27;101196.97;10373907;28;20496;-72
2023/04/15 06:38:53;;;;;;;7.70;6.70;;;;;;;12.31;86.38;101186.41;10373376;28;20029;-72
2023/04/15 06:43:53;;;;;;;9.98;5.80;;;;;;;12.98;84.06;101200.22;10373866;28;20033;-72
2023/04/15 06:48:54;;;;;;;8.98;6.85;;;;;;;13.36;78.68;101205.13;10374552;28;20068;-73
2023/04/15 06:53:55;;;;;;;13.40;6.82;;;;;;;13.24;75.37;101218.47;10374010;28;20095;-73
2023/04/15 06:58:56;;;;;;;6.85;5.57;;;;;;;13.75;73.15;101217.88;10373723;28;20041;-74
2023/04/15 07:03:56;;;;;;;6.47;5.47;;;;;;;13.92;69.91;101227.31;10380394;28;20069;-74
2023/04/15 07:08:57;;;;;;;7.45;6.03;;;;;;;14.02;67.76;101236.94;10396847;28;20033;-73
2023/04/15 07:13:57;;;;;;;8.70;5.88;;;;;;;14.17;67.70;101232.91;10385482;28;20383;-74
2023/04/15 07:18:58;;;;;;;17.15;6.30;;;;;;;14.31;66.11;101233.72;10381126;28;20037;-67
2023/04/15 07:23:58;;;;;;;6.30;5.68;;;;;;;14.21;65.05;101238.78;10381474;28;20065;-64
2023/04/15 07:28:58;;;;;;;11.20;5.90;;;;;;;14.35;64.91;101255.91;10396875;28;20113;-65
2023/04/15 07:33:59;;;;;;;7.35;5.53;;;;;;;14.52;64.28;101273.50;10380588;28;20069;-73
2023/04/15 07:39:02;;;;;;;8.68;5.75;;;;;;;14.63;61.91;101281.00;10380383;28;20382;-73
2023/04/15 07:44:02;;;;;;;10.15;5.38;;;;;;;14.78;62.27;101288.94;10377365;28;20068;-73
2023/04/15 07:49:03;;;;;;;10.48;5.75;;;;;;;15.34;62.96;101282.75;10379652;28;20037;-74
2023/04/15 07:54:03;;;;;;;9.80;6.10;;;;;;;15.90;61.41;101294.78;10380667;28;20046;-73
2023/04/15 07:59:05;;;;;;;6.80;4.65;;;;;;;16.65;59.63;101312.94;10378261;28;20506;-73
2023/04/15 08:04:05;;;;;;;12.80;5.78;;;;;;;17.06;55.31;101322.38;10379025;28;20109;-73
2023/04/15 08:09:07;;;;;;;6.32;5.75;;;;;;;16.50;56.88;101327.81;10378878;28;20210;-73
2023/04/15 08:14:07;;;;;;;5.82;5.30;;;;;;;16.67;53.78;101329.97;10378499;28;20465;-73
2023/04/15 08:19:08;;;;;;;6.70;5.18;;;;;;;16.81;57.03;101345.19;10378690;28;20049;-73
2023/04/15 08:24:08;;;;;;;6.97;6.28;;;;;;;16.88;55.96;101347.84;10379315;28;20042;-71
2023/04/15 08:29:09;;;;;;;6.80;5.93;;;;;;;17.34;53.37;101358.22;10378481;28;20045;-73
2023/04/15 08:34:11;;;;;;;7.90;6.30;;;;;;;16.85;55.03;101368.28;10376181;28;20466;-74
2023/04/15 08:39:11;;;;;;;8.45;6.10;;;;;;;16.91;55.41;101372.84;10394436;28;20084;-72
2023/04/15 08:44:12;;;;;;;8.95;6.45;;;;;;;17.36;54.33;101374.41;10388852;28;20088;-72
2023/04/15 08:49:12;;;;;;;6.70;6.10;;;;;;;17.34;53.53;101382.84;10397253;28;20030;-73
2023/04/15 08:54:13;;;;;;;7.82;6.25;;;;;;;17.99;54.02;101387.63;10396639;28;20064;-72
2023/04/15 08:59:15;;;;;;;7.70;5.22;;;;;;;18.42;50.96;101404.88;10392069;28;20029;-73
2023/04/15 09:04:15;;;;;;;8.48;6.05;;;;;;;18.18;49.44;101413.03;10359573;28;20401;-73
2023/04/15 09:09:16;;;;;;;11.80;5.38;;;;;;;18.32;51.56;101413.69;10377183;28;20041;-71
2023/04/15 09:14:17;;;;;;;7.30;5.97;;;;;;;18.99;48.84;101424.31;10375395;28;20038;-74
2023/04/15 09:19:22;;;;;;;7.25;5.57;;;;;;;18.97;47.39;101431.94;10375544;28;20625;-74
2023/04/15 09:24:22;;;;;;;5.90;4.85;;;;;;;18.83;48.20;101433.28;10376681;28;20389;-72
2023/04/15 09:29:25;;;;;;;8.05;5.43;;;;;;;19.01;47.65;101450.44;10376725;28;20057;-75
2023/04/15 09:34:35;;;;;;;5.38;4.88;;;;;;;19.58;46.92;101446.13;10376528;28;20037;-74
2023/04/15 09:39:49;;;;;;;7.93;4.63;;;;;;;20.03;45.60;101454.44;10374548;28;20045;-73
2023/04/15 09:44:51;;;;;;;7.13;4.63;;;;;;;20.34;46.90;101463.25;10358124;28;20033;-74
2023/04/15 09:49:56;;;;;;;5.13;4.72;;;;;;;20.31;41.05;101463.75;10357545;28;20125;-73
2023/04/15 09:54:57;;;;;;;7.03;5.20;;;;;;;20.22;41.02;101482.56;10375276;28;20125;-73
2023/04/15 09:59:58;;;;;;;4.40;3.88;;;;;;;18.48;41.89;101484.28;10389784;28;20083;-67
2023/04/15 10:04:59;;;;;;;5.25;4.15;;;;;;;18.83;45.35;101488.16;10372869;28;20042;-65
2023/04/15 10:10:00;;;;;;;4.80;4.40;;;;;;;19.01;42.65;101504.50;10375679;28;20029;-72
2023/04/15 10:15:06;;;;;;;7.28;4.57;;;;;;;19.77;44.42;101488.03;10389299;28;20470;-73
2023/04/15 10:20:08;;;;;;;9.40;4.13;;;;;;;20.15;43.07;101499.22;10388702;28;20061;-72
2023/04/15 10:25:09;;;;;;;3.53;3.10;;;;;;;19.96;42.37;101504.09;10372483;28;20049;-73
2023/04/15 10:30:10;;;;;;;3.17;2.97;;;;;;;19.98;40.47;101512.94;10372081;28;20033;-73
2023/04/15 10:35:10;;;;;;;4.10;2.75;;;;;;;20.12;40.34;101507.97;10372856;28;20121;-73
2023/04/15 10:40:28;;;;;;;4.05;2.90;;;;;;;19.93;39.33;101504.56;10372313;28;20038;-73
2023/04/15 10:45:35;;;;;;;4.50;2.92;;;;;;;20.11;38.07;101510.97;10374929;28;20046;-73
2023/04/15 10:50:36;;;;;;;3.33;2.90;;;;;;;20.91;39.15;101526.41;10373461;28;20034;-72
2023/04/15 10:55:36;;;;;;;3.20;2.83;;;;;;;20.99;38.61;101528.72;10373078;28;20034;-74
2023/04/15 11:00:38;;;;;;;2.60;2.40;;;;;;;21.10;40.26;101530.56;10373798;28;20038;-75
2023/04/15 11:05:41;;;;;;;8.30;3.15;;;;;;;21.08;38.01;101526.38;10373421;28;20065;-72
2023/04/15 11:10:41;;;;;;;3.78;3.38;;;;;;;20.37;38.36;101528.78;10373332;28;20033;-73
2023/04/15 11:15:45;;;;;;;2.53;2.42;;;;;;;20.89;37.42;101531.31;10377772;28;20034;-74
2023/04/15 11:20:49;;;;;;;3.00;2.75;;;;;;;21.27;39.47;101541.53;10373351;28;20029;-74
2023/04/15 11:25:50;;;;;;;2.75;2.45;;;;;;;21.90;38.06;101544.88;10374894;28;20050;-76
2023/04/15 11:30:50;;;;;;;3.40;2.40;;;;;;;20.81;39.47;101554.63;10373189;28;20149;-75
2023/04/15 11:35:54;;;;;;;8.57;2.28;;;;;;;21.51;40.03;101550.47;10373534;28;20034;-74
2023/04/15 11:40:54;;;;;;;2.25;2.10;;;;;;;21.49;38.10;101571.91;10391435;28;20029;-75
2023/04/15 11:45:56;;;;;;;2.47;2.25;;;;;;;21.80;38.25;101583.38;10373062;28;20030;-73
2023/04/15 11:51:01;;;;;;;9.60;3.25;;;;;;;20.39;42.20;101579.72;10396264;28;20427;-72
2023/04/15 11:56:01;;;;;;;3.38;3.15;;;;;;;21.68;43.87;101586.25;10379532;28;20030;-74
2023/04/15 12:01:02;;;;;;;6.78;2.53;;;;;;;22.10;43.87;101588.41;10378935;28;20026;-72
2023/04/15 12:06:19;;;;;;;5.95;2.88;;;;;;;22.04;43.22;101606.81;10395584;28;20478;-73
2023/04/15 12:11:25;;;;;;;7.88;4.30;;;;;;;21.64;42.01;101604.38;10379754;28;20038;-72
2023/04/15 12:16:26;;;;;;;;;;;;;;;21.82;42.26;101606.84;10380470;28;20092;-73
2023/04/15 12:21:28;;;;;;;4.93;3.40;;;;;;;21.64;41.29;101612.66;10379483;28;20312;-73
2023/04/15 12:26:48;;;;;;;5.47;2.75;;;;;;;21.58;43.30;101619.19;10393095;28;20074;-75
2023/04/15 12:31:53;;;;;;;4.78;3.22;;;;;;;21.35;43.73;101631.25;10361886;28;20037;-74
2023/04/15 12:36:54;;;;;;;4.95;2.45;;;;;;;21.35;41.32;101654.13;10378302;28;20037;-72
2023/04/15 12:41:54;;;;;;;16.42;3.35;;;;;;;21.31;42.03;101652.06;10376694;28;20485;-75
2023/04/15 12:46:55;;;;;;;2.40;2.30;;;;;;;21.26;43.60;101654.75;10376363;28;20050;-74
2023/04/15 12:51:56;;;;;;;6.10;3.40;;;;;;;20.91;42.84;101664.06;10392769;28;20048;-75
2023/04/15 12:56:57;;;;;;;3.42;2.92;;;;;;;20.78;41.40;101676.22;10375856;28;20057;-74
2023/04/15 13:01:59;;;;;;;2.80;2.55;;;;;;;20.30;44.41;101687.63;10375676;28;20042;-72
2023/04/15 13:07:00;;;;;;;1.60;1.50;;;;;;;20.43;43.63;101690.09;10376499;28;20091;-75
2023/04/15 13:12:01;;;;;;;2.08;1.73;;;;;;;20.30;43.78;101690.38;10392694;28;20087;-73
2023/04/15 13:17:07;;;;;;;6.53;2.20;;;;;;;19.83;44.01;101687.69;10393185;28;20037;-72
2023/04/15 13:22:08;;;;;;;8.43;1.98;;;;;;;19.71;42.99;101707.75;10376561;28;20029;-73
2023/04/15 13:27:08;;;;;;;6.40;2.63;;;;;;;19.37;43.93;101714.03;10373662;28;20054;-72
2023/04/15 13:32:08;;;;;;;3.15;2.33;;;;;;;18.88;44.46;101716.06;10375546;28;20033;-74
2023/04/15 13:37:09;;;;;;;2.65;2.25;;;;;;;19.15;46.96;101724.75;10377985;28;20045;-74
2023/04/15 13:42:09;;;;;;;3.22;2.38;;;;;;;19.12;46.85;101720.56;10376671;28;20076;-74
2023/04/15 13:47:10;;;;;;;4.60;3.20;;;;;;;19.35;45.65;101733.50;10373606;28;20040;-71
2023/04/15 13:52:11;;;;;;;2.28;2.13;;;;;;;19.12;47.25;101734.28;10373808;28;20045;-73
2023/04/15 13:57:11;;;;;;;4.68;2.63;;;;;;;18.98;46.69;101735.53;10390847;28;20454;-73
2023/04/15 14:02:12;;;;;;;5.40;3.60;;;;;;;18.54;45.07;101743.09;10374185;28;20041;-73
2023/04/15 14:07:12;;;;;;;12.05;2.83;;;;;;;18.41;48.65;101744.06;10389861;28;20545;-73
2023/04/15 14:12:13;;;;;;;4.43;2.42;;;;;;;18.92;48.47;101762.03;10374057;28;20444;-74
2023/04/15 14:17:13;;;;;;;3.35;2.97;;;;;;;18.93;47.94;101751.88;10372782;28;20132;-71
2023/04/15 14:22:14;;;;;;;13.52;3.10;;;;;;;18.43;47.02;101763.88;10390211;28;20069;-72
2023/04/15 14:27:15;;;;;;;2.88;1.88;;;;;;;18.39;49.18;101781.03;10390990;28;20088;-72
2023/04/15 14:32:15;;;;;;;3.25;1.65;;;;;;;17.89;48.97;101784.66;10374454;28;20492;-74
2023/04/15 14:37:16;;;;;;;2.72;1.90;;;;;;;17.81;50.30;101801.41;10374141;28;20038;-71
2023/04/15 14:42:16;;;;;;;6.35;2.42;;;;;;;16.94;50.83;101807.41;10372483;28;20042;-72
2023/04/15 14:47:17;;;;;;;3.00;2.80;;;;;;;16.57;52.94;101809.00;10373498;28;20077;-71
2023/04/15 14:52:17;;;;;;;10.88;3.38;;;;;;;16.01;54.06;101817.69;10388126;28;20442;-71
2023/04/15 14:57:17;;;;;;;6.32;2.70;;;;;;;15.49;55.85;101841.19;10374751;28;20049;-71
2023/04/15 15:02:18;;;;;;;4.38;3.13;;;;;;;14.56;57.22;101844.38;10373329;28;20038;-73
2023/04/15 15:07:18;;;;;;;3.75;2.92;;;;;;;13.78;60.72;101859.06;10373957;28;20526;-71
2023/04/15 15:12:20;;;;;;;2.88;2.67;;;;;;;13.44;63.42;101853.28;10373129;28;20030;-71
2023/04/15 15:17:21;;;;;;;6.00;2.53;;;;;;;13.26;63.19;101859.16;10373135;28;20462;-72
2023/04/15 15:22:21;;;;;;;3.92;3.40;;;;;;;12.84;68.37;101870.75;10374080;28;20029;-71
2023/04/15 15:27:22;;;;;;;5.95;3.35;;;;;;;12.34;73.80;101881.28;10379673;28;20049;-71
2023/04/15 15:32:22;;;;;;;11.05;2.70;;;;;;;12.23;70.73;101886.34;10364069;28;20041;-71
2023/04/15 15:37:22;;;;;;;5.20;2.67;;;;;;;12.13;70.70;101892.03;10379559;28;20461;-71
2023/04/15 15:42:23;;;;;;;4.15;2.65;;;;;;;11.88;77.10;101880.53;10380536;28;20083;-71
2023/04/15 15:47:26;;;;;;;5.97;2.38;;;;;;;11.72;78.20;101891.50;10380210;28;20092;-71
2023/04/15 15:52:26;;;;;;;3.58;2.58;;;;;;;11.61;77.28;101903.59;10378720;28;20386;-70
2023/04/15 15:57:27;;;;;;;5.55;4.22;;;;;;;11.49;80.58;101915.91;10379820;28;20041;-70
2023/04/15 16:02:27;;;;;;;7.00;3.13;;;;;;;11.50;78.76;101926.56;10380073;28;20091;-72
2023/04/15 16:07:27;;;;;;;5.70;2.97;;;;;;;11.36;77.96;101938.19;10394667;28;20124;-70
2023/04/15 16:12:28;;;;;;;9.70;2.92;;;;;;;11.25;82.65;101947.53;10380050;28;20450;-71
2023/04/15 16:17:28;;;;;;;6.15;3.00;;;;;;;10.96;85.83;101955.44;10378898;28;20100;-71
2023/04/15 16:22:29;;;;;;;6.28;2.78;;;;;;;10.78;85.41;101958.38;10379171;28;20038;-73
2023/04/15 16:27:29;;;;;;;8.48;3.22;;;;;;;10.78;84.16;101942.94;10394201;28;20057;-72
2023/04/15 16:32:29;;;;;;;4.38;2.70;;;;;;;10.64;86.31;101968.91;10378453;28;20533;-71
2023/04/15 16:37:31;;;;;;;4.93;2.40;;;;;;;10.43;89.72;101982.97;10377680;28;20030;-71
2023/04/15 16:42:32;;;;;;;6.28;3.30;;;;;;;10.22;90.91;101990.72;10393507;28;20069;-73
2023/04/15 16:47:32;;;;;;;12.25;3.75;;;;;;;10.02;95.23;101992.91;10393044;28;20061;-72
2023/04/15 16:52:33;;;;;;;8.40;2.58;;;;;;;9.81;95.58;102009.59;10377664;28;20038;-71
2023/04/15 16:57:33;;;;;;;6.80;4.20;;;;;;;9.74;91.45;102022.94;10377203;28;20121;-72
2023/04/15 17:02:34;;;;;;;9.10;3.58;;;;;;;9.67;96.03;102029.19;10375467;28;20038;-71
2023/04/15 17:07:34;;;;;;;3.05;2.15;;;;;;;9.55;98.03;102020.50;10377025;28;20175;-70
2023/04/15 17:12:35;;;;;;;10.68;4.20;;;;;;;9.36;94.28;102032.44;10377679;28;20038;-70
2023/04/15 17:17:35;;;;;;;4.72;2.97;;;;;;;9.21;92.69;102045.69;10393225;28;20034;-70
2023/04/15 17:22:35;;;;;;;4.18;2.33;;;;;;;9.00;97.25;102037.13;10376168;28;20525;-71
2023/04/15 17:27:37;;;;;;;1.38;1.35;;;;;;;8.68;100.00;102049.41;10375032;28;20058;-71
2023/04/15 17:32:38;;;;;;;5.65;1.90;;;;;;;8.55;98.88;102046.25;10375656;28;20038;-71
2023/04/15 17:37:39;;;;;;;5.80;2.08;;;;;;;8.50;100.00;102046.72;10391428;28;20033;-70
2023/04/15 17:42:40;;;;;;;8.57;2.55;;;;;;;8.82;97.89;102051.53;10375298;28;20038;-69
2023/04/15 17:47:40;;;;;;;11.63;2.42;;;;;;;9.06;100.00;102064.38;10391216;28;20057;-69
2023/04/15 17:52:41;;;;;;;3.95;2.30;;;;;;;8.92;100.00;102073.03;10375578;28;20041;-70
2023/04/15 17:57:41;;;;;;;10.48;2.35;;;;;;;8.89;98.13;102070.66;10375954;28;20068;-71
2023/04/15 18:02:41;;;;;;;16.13;2.35;;;;;;;8.90;100.00;102082.28;10374974;28;20435;-71
2023/04/15 18:07:42;;;;;;;6.55;2.17;;;;;;;8.92;100.00;102077.59;10373968;28;20034;-71
2023/04/15 18:12:42;;;;;;;9.98;3.72;;;;;;;8.89;100.00;102089.56;10391156;28;20037;-71
2023/04/15 18:17:43;;;;;;;7.93;2.95;;;;;;;8.83;100.00;102082.91;10374787;28;20057;-70
2023/04/15 18:22:43;;;;;;;7.63;2.28;;;;;;;8.94;100.00;102102.59;10375852;28;20050;-73
2023/04/15 18:27:44;;;;;;;7.78;2.38;;;;;;;8.94;99.25;102113.41;10374003;28;20053;-71
2023/04/15 18:32:44;;;;;;;4.43;2.45;;;;;;;8.97;98.04;102108.53;10391800;28;20377;-71
2023/04/15 18:37:45;;;;;;;3.05;1.75;;;;;;;8.90;100.00;102123.66;10376799;28;20044;-72
2023/04/15 18:42:45;;;;;;;6.75;1.95;;;;;;;8.76;100.00;102125.06;10374750;28;20195;-71
2023/04/15 18:47:46;;;;;;;12.05;3.30;;;;;;;8.77;99.27;102124.06;10373731;28;20045;-69
2023/04/15 18:52:47;;;;;;;7.45;2.00;;;;;;;8.75;100.00;102147.69;10373300;28;20036;-75
2023/04/15 18:57:47;;;;;;;6.72;3.03;;;;;;;8.55;100.00;102136.22;10371887;28;20088;-71
2023/04/15 19:02:47;;;;;;;10.73;2.17;;;;;;;8.63;98.33;102153.47;10374652;28;20042;-72
2023/04/15 19:07:49;;;;;;;2.75;2.15;;;;;;;8.51;100.00;102151.00;10371434;28;20057;-71
2023/04/15 19:12:49;;;;;;;5.72;2.13;;;;;;;8.53;100.00;102153.56;10373157;28;20030;-70
2023/04/15 19:17:50;;;;;;;2.97;2.15;;;;;;;8.44;100.00;102160.72;10372036;28;20038;-71
2023/04/15 19:22:50;;;;;;;2.65;1.88;;;;;;;8.33;100.00;102163.59;10387709;28;20049;-73
2023/04/15 19:27:51;;;;;;;3.85;2.65;;;;;;;8.34;100.00;102162.59;10372054;28;20058;-72
2023/04/15 19:32:51;;;;;;;3.15;2.10;;;;;;;8.29;100.00;102171.13;10372679;28;20088;-72
2023/04/15 19:37:51;;;;;;;1.73;1.63;;;;;;;8.10;100.00;102184.72;10373124;28;20034;-70
2023/04/15 19:42:52;;;;;;;6.65;2.22;;;;;;;8.20;100.00;102180.16;10388612;28;20429;-71
2023/04/15 19:47:52;;;;;;;4.28;2.35;;;;;;;8.22;100.00;102180.84;10370584;28;20034;-72
2023/04/15 19:52:53;;;;;;;6.13;2.38;;;;;;;8.31;100.00;102176.41;10372414;28;20037;-71
2023/04/15 19:57:53;;;;;;;7.53;2.35;;;;;;;8.38;100.00;102177.50;10354648;28;20037;-71
2023/04/15 20:02:57;;;;;;;9.48;1.98;;;;;;;8.27;100.00;102188.50;10373382;28;20042;-70
2023/04/15 20:07:57;;;;;;;7.45;3.10;;;;;;;8.35;100.00;102188.56;10372803;28;20030;-73
2023/04/15 20:12:58;;;;;;;4.38;1.60;;;;;;;8.42;100.00;102205.06;10379779;28;20048;-70
2023/04/15 20:17:58;;;;;;;4.32;2.10;;;;;;;8.24;100.00;102184.25;10378541;28;20140;-71
2023/04/15 20:22:58;;;;;;;7.38;1.90;;;;;;;8.26;100.00;102200.28;10378836;28;20038;-70
2023/04/15 20:27:59;;;;;;;8.00;2.45;;;;;;;8.32;100.00;102203.22;10393998;28;20058;-70
2023/04/15 20:33:00;;;;;;;2.35;2.03;;;;;;;8.27;100.00;102202.84;10377484;28;20149;-70
2023/04/15 20:38:02;;;;;;;10.15;1.98;;;;;;;7.86;100.00;102187.97;10394128;28;20474;-69
2023/04/15 20:43:02;;;;;;;4.07;2.55;;;;;;;7.76;100.00;102203.34;10377880;28;20470;-69
2023/04/15 20:48:03;;;;;;;5.78;2.00;;;;;;;7.87;100.00;102205.84;10394325;28;20121;-71
2023/04/15 20:53:04;;;;;;;1.50;1.40;;;;;;;7.92;100.00;102187.41;10378298;28;20042;-69
2023/04/15 20:58:04;;;;;;;4.65;1.98;;;;;;;7.99;100.00;102210.06;10376304;28;20038;-70
2023/04/15 21:03:05;;;;;;;4.70;1.67;;;;;;;8.03;100.00;102218.72;10377202;28;20091;-70
2023/04/15 21:08:05;;;;;;;2.90;1.70;;;;;;;8.11;100.00;102218.84;10376353;28;20066;-70
2023/04/15 21:13:06;;;;;;;6.97;2.78;;;;;;;8.18;100.00;102213.69;10377967;28;20386;-70
2023/04/15 21:18:07;;;;;;;1.85;1.40;;;;;;;8.12;100.00;102210.56;10377395;28;20060;-72
2023/04/15 21:23:07;;;;;;;8.88;1.52;;;;;;;8.23;100.00;102220.34;10374486;28;20076;-69
2023/04/15 21:28:08;;;;;;;1.75;1.55;;;;;;;8.26;100.00;102233.50;10391420;28;20089;-71
2023/04/15 21:33:08;;;;;;;8.13;2.22;;;;;;;8.33;100.00;102228.38;10376220;28;20390;-71
2023/04/15 21:38:09;;;;;;;8.05;2.35;;;;;;;8.40;100.00;102234.06;10375679;28;20053;-70
2023/04/15 21:43:09;;;;;;;5.00;1.75;;;;;;;8.44;100.00;102241.69;10376220;28;20539;-71
2023/04/15 21:48:12;;;;;;;2.42;1.83;;;;;;;8.51;100.00;102237.38;10390477;28;20066;-68
2023/04/15 21:53:12;;;;;;;2.45;1.48;;;;;;;8.54;100.00;102231.69;10374677;28;20037;-71
2023/04/15 21:58:12;;;;;;;2.17;1.30;;;;;;;8.55;100.00;102243.31;10358083;28;20482;-69
2023/04/15 22:03:13;;;;;;;1.75;1.38;;;;;;;8.60;100.00;102241.88;10374522;28;20030;-71
2023/04/15 22:08:13;;;;;;;4.65;1.63;;;;;;;8.49;100.00;102242.09;10374982;28;20065;-71
2023/04/15 22:13:14;;;;;;;2.80;1.70;;;;;;;8.50;100.00;102235.69;10390793;28;20045;-71
2023/04/15 22:18:14;;;;;;;1.48;1.42;;;;;;;8.47;100.00;102246.78;10391454;28;20034;-71
2023/04/15 22:23:18;;;;;;;3.78;1.67;;;;;;;8.43;100.00;102263.47;10374600;28;20453;-70
2023/04/15 22:28:19;;;;;;;6.18;2.25;;;;;;;8.43;100.00;102264.31;10373153;28;20145;-71
2023/04/15 22:33:19;;;;;;;6.75;2.08;;;;;;;8.45;100.00;102264.97;10373875;28;20149;-69
2023/04/15 22:38:20;;;;;;;2.60;1.23;;;;;;;8.49;100.00;102265.56;10373793;28;20037;-70
2023/04/15 22:43:20;;;;;;;7.43;1.95;;;;;;;8.47;100.00;102267.53;10373315;28;20062;-70
2023/04/15 22:48:21;;;;;;;5.95;1.35;;;;;;;8.50;100.00;102276.19;10356605;28;20029;-71
2023/04/15 22:53:21;;;;;;;1.75;1.52;;;;;;;8.62;100.00;102268.75;10373328;28;20034;-69
2023/04/15 22:58:23;;;;;;;7.88;2.33;;;;;;;8.63;100.00;102270.44;10374856;28;20049;-71
2023/04/15 23:03:23;;;;;;;3.13;1.88;;;;;;;8.70;100.00;102278.78;10356933;28;20038;-70